Time;durP1;ratioP1;P1;durP2;ratioP2;P2;SDS_P1;SDS_P2;PMS_P1;PMS_P2;Temp;Humidity;BMP_temperature;BMP_pressure;BME280_temperature;BME280_humidity;BME280_pressure;Samples;Min_cycle;Max_cycle;Signal;HPM_P1;HPM_P2
2023/10/25 00:00:41;;;;;;;8.00;3.50;;;;;;;10.80;100.00;100076.03;5098939;28;20051;-62
2023/10/25 00:03:30;;;;;;;11.77;3.10;;;;;;;10.82;100.00;100071.09;5111232;28;20055;-64
2023/10/25 00:06:18;;;;;;;6.65;3.10;;;;;;;10.80;100.00;100062.41;5084405;28;20058;-64
2023/10/25 00:09:06;;;;;;;9.70;3.88;;;;;;;10.77;100.00;100062.97;5114740;27;20481;-64
2023/10/25 00:11:54;;;;;;;8.50;3.25;;;;;;;10.75;100.00;100066.00;5113941;28;20517;-63
2023/10/25 00:14:42;;;;;;;6.35;3.05;;;;;;;10.73;100.00;100064.66;5110450;28;20506;-63
2023/10/25 00:17:30;;;;;;;9.73;3.30;;;;;;;10.73;100.00;100064.66;5113886;28;20048;-63
2023/10/25 00:20:18;;;;;;;9.90;3.53;;;;;;;10.75;100.00;100067.91;5097540;28;20044;-64
2023/10/25 00:23:06;;;;;;;7.80;3.50;;;;;;;10.76;100.00;100064.91;5111418;28;20079;-64
2023/10/25 00:25:55;;;;;;;7.07;3.13;;;;;;;10.75;100.00;100057.84;5111400;28;20032;-64
2023/10/25 00:28:43;;;;;;;11.05;3.38;;;;;;;10.73;100.00;100053.78;5112667;28;20549;-64
2023/10/25 00:31:31;;;;;;;9.13;3.10;;;;;;;10.69;100.00;100052.72;5096838;28;20047;-64
2023/10/25 00:34:19;;;;;;;9.48;3.47;;;;;;;10.66;100.00;100054.91;5095976;28;20083;-64
2023/10/25 00:37:09;;;;;;;12.38;3.63;;;;;;;10.62;100.00;100047.59;5096750;28;20048;-63
2023/10/25 00:39:57;;;;;;;13.05;3.90;;;;;;;10.56;100.00;100057.75;5097152;28;20086;-64
2023/10/25 00:42:45;;;;;;;11.43;3.88;;;;;;;10.53;100.00;100060.22;5112639;28;20372;-63
2023/10/25 00:45:33;;;;;;;6.80;3.00;;;;;;;10.50;100.00;100063.50;5111149;28;20062;-64
2023/10/25 00:48:22;;;;;;;8.13;3.17;;;;;;;10.47;100.00;100059.44;5098500;28;20177;-63
2023/10/25 00:51:11;;;;;;;11.05;3.28;;;;;;;10.45;100.00;100054.28;5113726;28;20424;-64
2023/10/25 00:54:01;;;;;;;8.80;3.00;;;;;;;10.45;100.00;100053.47;5099440;28;20075;-63
2023/10/25 00:56:50;;;;;;;10.82;3.50;;;;;;;10.44;100.00;100062.75;5123388;28;20078;-61
2023/10/25 00:59:39;;;;;;;9.23;3.15;;;;;;;10.43;100.00;100056.47;5117509;28;20079;-61
2023/10/25 01:02:28;;;;;;;10.60;3.35;;;;;;;10.44;100.00;100057.31;5106316;28;20048;-63
2023/10/25 01:05:16;;;;;;;7.60;3.22;;;;;;;10.47;100.00;100054.00;5100843;28;20431;-58
2023/10/25 01:08:04;;;;;;;7.68;3.33;;;;;;;10.48;100.00;100058.34;5112001;28;20541;-57
2023/10/25 01:10:53;;;;;;;9.23;3.35;;;;;;;10.47;100.00;100054.00;5128116;28;20069;-60
2023/10/25 01:13:41;;;;;;;5.63;2.92;;;;;;;10.43;100.00;100048.31;5087097;28;20051;-64
2023/10/25 01:16:30;;;;;;;6.82;3.03;;;;;;;10.41;100.00;100044.25;5112919;28;20511;-64
2023/10/25 01:19:18;;;;;;;8.35;3.08;;;;;;;10.39;100.00;100039.09;5111848;28;20145;-63
2023/10/25 01:22:06;;;;;;;7.90;3.38;;;;;;;10.42;100.00;100032.28;5098072;28;20078;-62
2023/10/25 01:24:54;;;;;;;8.98;3.50;;;;;;;10.41;100.00;100025.19;5096112;28;20059;-63
2023/10/25 01:27:44;;;;;;;8.32;2.80;;;;;;;10.40;100.00;100032.53;5102753;28;20059;-63
2023/10/25 01:30:32;;;;;;;7.00;3.13;;;;;;;10.42;100.00;100027.63;5080933;28;20083;-62
2023/10/25 01:33:20;;;;;;;7.55;2.95;;;;;;;10.45;100.00;100026.25;5129958;27;20054;-63
2023/10/25 01:36:08;;;;;;;8.85;3.35;;;;;;;10.46;100.00;100030.56;5125037;27;20054;-63
2023/10/25 01:38:56;;;;;;;9.02;3.30;;;;;;;10.45;100.00;100024.31;5101319;28;20503;-63
2023/10/25 01:41:44;;;;;;;7.65;3.10;;;;;;;10.46;100.00;100019.69;5116747;28;20082;-63
2023/10/25 01:44:34;;;;;;;6.82;2.83;;;;;;;10.43;100.00;100017.53;5107999;28;20051;-63
2023/10/25 01:47:22;;;;;;;13.75;3.60;;;;;;;10.41;100.00;100011.56;5111337;27;20407;-63
2023/10/25 01:50:10;;;;;;;6.50;3.05;;;;;;;10.42;100.00;100010.47;5103290;27;20158;-64
2023/10/25 01:52:58;;;;;;;10.95;3.22;;;;;;;10.34;100.00;100002.91;5123385;27;20055;-63
2023/10/25 01:55:48;;;;;;;8.88;2.70;;;;;;;10.34;100.00;99992.03;5090129;28;20080;-63
2023/10/25 01:58:36;;;;;;;8.07;2.65;;;;;;;10.35;100.00;99993.66;5081089;28;20108;-64
2023/10/25 02:01:24;;;;;;;9.73;2.80;;;;;;;10.35;100.00;99989.03;5100430;27;20043;-64
2023/10/25 02:04:12;;;;;;;9.18;3.20;;;;;;;10.35;100.00;99988.22;5114570;27;20414;-65
2023/10/25 02:07:02;;;;;;;7.57;2.90;;;;;;;10.36;100.00;99987.09;5080198;28;20086;-63
2023/10/25 02:09:50;;;;;;;8.13;2.90;;;;;;;10.36;100.00;99981.66;5079452;28;20131;-63
2023/10/25 02:12:38;;;;;;;7.88;3.13;;;;;;;10.34;100.00;99973.81;5104485;27;20127;-64
2023/10/25 02:15:29;;;;;;;5.53;2.97;;;;;;;10.33;100.00;99974.88;5109782;28;20075;-62
2023/10/25 02:18:17;;;;;;;9.43;3.30;;;;;;;10.36;100.00;99968.84;5115807;28;20052;-63
2023/10/25 02:21:05;;;;;;;11.00;3.10;;;;;;;10.36;100.00;99963.41;5113394;28;20051;-63
2023/10/25 02:23:53;;;;;;;7.38;2.70;;;;;;;10.37;100.00;99965.06;5100142;28;20123;-64
2023/10/25 02:26:41;;;;;;;5.35;2.70;;;;;;;10.37;100.00;99967.78;5099523;28;20051;-62
2023/10/25 02:29:31;;;;;;;10.43;3.20;;;;;;;10.38;100.00;99968.56;5114255;28;20054;-62
2023/10/25 02:32:19;;;;;;;7.63;3.00;;;;;;;10.30;100.00;99971.94;5115700;27;20050;-63
2023/10/25 02:35:07;;;;;;;7.07;3.30;;;;;;;10.27;100.00;99972.47;5098319;28;20040;-63
2023/10/25 02:37:55;;;;;;;6.65;2.70;;;;;;;10.27;100.00;99958.84;5085912;28;20063;-63
2023/10/25 02:40:45;;;;;;;7.30;2.70;;;;;;;10.30;100.00;99963.78;5100457;28;20054;-63
2023/10/25 02:43:34;;;;;;;6.30;2.70;;;;;;;10.30;100.00;99958.31;5104544;27;20507;-63
2023/10/25 02:46:23;;;;;;;6.35;2.90;;;;;;;10.30;100.00;99952.88;5066130;28;20044;-63
2023/10/25 02:49:11;;;;;;;8.50;2.90;;;;;;;10.31;100.00;99954.50;5079708;28;20052;-63
2023/10/25 02:51:59;;;;;;;8.45;3.10;;;;;;;10.31;100.00;99938.97;5079380;28;20504;-63
2023/10/25 02:54:47;;;;;;;7.47;2.90;;;;;;;10.33;100.00;99931.31;5093242;27;20065;-61
2023/10/25 02:57:35;;;;;;;9.00;3.05;;;;;;;10.34;100.00;99926.69;5098843;28;20047;-62
2023/10/25 03:00:23;;;;;;;9.85;3.00;;;;;;;10.33;100.00;99919.63;5081068;28;20404;-62
2023/10/25 03:03:11;;;;;;;7.70;3.30;;;;;;;10.34;100.00;99911.19;5098187;28;20047;-63
2023/10/25 03:06:00;;;;;;;11.60;3.47;;;;;;;10.35;100.00;99909.25;5084516;28;20051;-62
2023/10/25 03:08:48;;;;;;;12.02;3.53;;;;;;;10.31;100.00;99919.09;5100265;28;20122;-62
2023/10/25 03:11:36;;;;;;;10.48;3.75;;;;;;;10.29;100.00;99918.56;5099897;28;20124;-61
2023/10/25 03:14:24;;;;;;;13.55;3.78;;;;;;;10.27;100.00;99909.84;5097929;28;20096;-63
2023/10/25 03:17:12;;;;;;;13.27;4.45;;;;;;;10.27;100.00;99904.41;5076327;28;20470;-62
2023/10/25 03:20:02;;;;;;;12.32;4.32;;;;;;;10.28;100.00;99900.59;5113589;28;20047;-63
2023/10/25 03:22:50;;;;;;;13.80;4.72;;;;;;;10.29;100.00;99896.78;5123299;27;20054;-64
2023/10/25 03:25:38;;;;;;;11.65;4.28;;;;;;;10.29;100.00;99894.06;5097819;28;20043;-62
2023/10/25 03:28:26;;;;;;;11.48;4.25;;;;;;;10.27;100.00;99891.63;5098607;28;20051;-63
2023/10/25 03:31:14;;;;;;;11.55;3.97;;;;;;;10.28;100.00;99892.41;5096525;28;20130;-63
2023/10/25 03:34:02;;;;;;;13.75;4.18;;;;;;;10.29;100.00;99891.34;5113564;28;20050;-64
2023/10/25 03:36:51;;;;;;;14.65;3.70;;;;;;;10.30;100.00;99887.53;5077578;28;20048;-64
2023/10/25 03:39:39;;;;;;;12.07;4.18;;;;;;;10.29;100.00;99889.41;5113502;27;20057;-62
2023/10/25 03:42:28;;;;;;;14.30;4.43;;;;;;;10.26;100.00;99891.91;5105031;27;20047;-63
2023/10/25 03:45:16;;;;;;;12.90;3.88;;;;;;;10.24;100.00;99879.38;5113095;27;20048;-63
2023/10/25 03:48:04;;;;;;;11.93;3.70;;;;;;;10.24;100.00;99881.28;5113461;28;20059;-63
2023/10/25 03:50:52;;;;;;;12.43;3.97;;;;;;;10.26;100.00;99875.56;5109906;27;20080;-64
2023/10/25 03:53:40;;;;;;;12.82;4.80;;;;;;;10.26;100.00;99872.84;5101166;27;20058;-62
2023/10/25 03:56:28;;;;;;;12.50;3.97;;;;;;;10.29;100.00;99866.84;5082883;28;20039;-63
2023/10/25 03:59:17;;;;;;;10.18;3.72;;;;;;;10.29;100.00;99869.56;5112675;28;20055;-63
2023/10/25 04:02:05;;;;;;;9.80;4.00;;;;;;;10.29;100.00;99864.13;5092147;28;20067;-64
2023/10/25 04:04:53;;;;;;;10.45;3.55;;;;;;;10.30;100.00;99860.31;5120087;27;20070;-65
2023/10/25 04:07:42;;;;;;;11.65;3.40;;;;;;;10.31;100.00;99864.63;5098404;28;20058;-64
2023/10/25 04:10:30;;;;;;;14.80;3.47;;;;;;;10.32;100.00;99863.53;5099826;27;20181;-62
2023/10/25 04:13:21;;;;;;;11.77;3.72;;;;;;;10.33;100.00;99862.44;5129712;27;20050;-62
2023/10/25 04:16:09;;;;;;;10.88;3.83;;;;;;;10.33;100.00;99860.53;5109814;28;20043;-62
2023/10/25 04:18:57;;;;;;;7.78;3.05;;;;;;;10.35;100.00;99863.78;5076430;28;20051;-62
2023/10/25 04:21:45;;;;;;;7.00;3.03;;;;;;;10.37;100.00;99860.78;5085714;28;20052;-62
2023/10/25 04:24:33;;;;;;;9.35;3.20;;;;;;;10.36;100.00;99859.13;5108470;28;20055;-63
2023/10/25 04:27:21;;;;;;;7.18;2.95;;;;;;;10.38;100.00;99851.50;5076813;28;20137;-63
2023/10/25 04:30:10;;;;;;;7.85;3.08;;;;;;;10.38;100.00;99846.03;5092316;28;20062;-66
2023/10/25 04:32:58;;;;;;;13.02;3.40;;;;;;;10.38;100.00;99848.75;5096443;28;20529;-63
2023/10/25 04:35:46;;;;;;;9.90;3.30;;;;;;;10.36;100.00;99853.69;5105816;28;20091;-63
2023/10/25 04:38:35;;;;;;;10.57;3.00;;;;;;;10.34;100.00;99855.88;5109031;28;20044;-64
2023/10/25 04:41:23;;;;;;;6.18;2.60;;;;;;;10.35;100.00;99862.97;5113379;28;20055;-62
2023/10/25 04:44:11;;;;;;;7.97;2.90;;;;;;;10.36;100.00;99854.50;5098086;28;20136;-62
2023/10/25 04:46:59;;;;;;;7.85;3.20;;;;;;;10.37;100.00;99849.88;5083925;28;20035;-62
2023/10/25 04:49:47;;;;;;;10.75;3.00;;;;;;;10.38;100.00;99844.13;5108951;28;20047;-62
2023/10/25 04:52:35;;;;;;;11.00;3.33;;;;;;;10.38;100.00;99840.59;5092815;28;20522;-63
2023/10/25 04:55:26;;;;;;;7.78;2.80;;;;;;;10.39;100.00;99837.59;5090238;28;20152;-64
2023/10/25 04:58:14;;;;;;;9.65;3.03;;;;;;;10.42;100.00;99841.66;5078042;28;20044;-63
2023/10/25 05:01:12;;;;;;;9.02;3.08;;;;;;;10.44;100.00;99828.56;5106415;28;20116;-63
2023/10/25 05:04:00;;;;;;;5.05;2.70;;;;;;;10.43;100.00;99821.47;5082465;28;20192;-63
2023/10/25 05:06:48;;;;;;;9.00;2.72;;;;;;;10.41;100.00;99810.88;5112625;28;20124;-63
2023/10/25 05:09:37;;;;;;;6.20;2.60;;;;;;;10.41;100.00;99816.34;5114110;28;20070;-63
2023/10/25 05:12:33;;;;;;;11.63;3.17;;;;;;;10.42;100.00;99808.97;5115308;28;20054;-63
2023/10/25 05:15:21;;;;;;;;;;;;;;;10.42;100.00;99798.88;5120012;27;20048;-62
2023/10/25 05:18:09;;;;;;;7.22;2.50;;;;;;;10.42;100.00;99803.53;5121286;27;19962;-64
2023/10/25 05:20:59;;;;;;;7.35;3.35;;;;;;;10.42;100.00;99789.91;5124314;28;20050;-62
2023/10/25 05:23:47;;;;;;;7.47;2.85;;;;;;;10.38;100.00;99791.59;5107260;28;20164;-63
2023/10/25 05:26:35;;;;;;;10.15;3.10;;;;;;;10.36;100.00;99782.88;5124462;28;20507;-64
2023/10/25 05:29:23;;;;;;;10.40;2.95;;;;;;;10.34;100.00;99782.38;5108641;28;20101;-63
2023/10/25 05:32:17;;;;;;;10.00;3.55;;;;;;;10.35;100.00;99781.28;5133092;28;20109;-59
2023/10/25 05:35:06;;;;;;;9.40;3.00;;;;;;;10.38;100.00;99775.25;5100563;28;20105;-65
2023/10/25 05:37:54;;;;;;;8.35;2.67;;;;;;;10.39;100.00;99776.84;5106512;28;20144;-63
2023/10/25 05:40:45;;;;;;;6.78;2.50;;;;;;;10.39;100.00;99785.03;5115900;28;20047;-65
2023/10/25 05:43:38;;;;;;;10.48;3.55;;;;;;;10.38;100.00;99776.03;5100923;28;20516;-67
2023/10/25 05:46:26;;;;;;;10.43;3.22;;;;;;;10.35;100.00;99764.94;5101760;28;20056;-66
2023/10/25 05:49:14;;;;;;;8.90;3.15;;;;;;;10.29;100.00;99766.91;5115090;28;20502;-66
2023/10/25 05:52:02;;;;;;;9.15;3.28;;;;;;;10.27;100.00;99768.28;5101201;28;20045;-67
2023/10/25 05:54:51;;;;;;;7.18;3.20;;;;;;;10.26;100.00;99766.66;5115028;28;20173;-66
2023/10/25 05:57:39;;;;;;;7.60;3.08;;;;;;;10.27;100.00;99762.81;5100738;28;20040;-66
2023/10/25 06:00:27;;;;;;;10.25;3.30;;;;;;;10.27;100.00;99758.22;5101091;28;20054;-65
2023/10/25 06:03:19;;;;;;;8.20;2.88;;;;;;;10.30;100.00;99754.94;5096580;28;20050;-65
2023/10/25 06:06:13;;;;;;;11.65;3.45;;;;;;;10.31;100.00;99753.00;5100443;28;20126;-67
2023/10/25 06:09:01;;;;;;;6.82;2.50;;;;;;;10.32;100.00;99749.16;5085533;28;20163;-66
2023/10/25 06:11:49;;;;;;;6.05;2.78;;;;;;;10.32;100.00;99738.28;5099552;28;20114;-67
2023/10/25 06:14:38;;;;;;;7.63;2.78;;;;;;;10.32;100.00;99739.13;5085301;28;20043;-66
2023/10/25 06:17:27;;;;;;;8.35;3.22;;;;;;;10.32;100.00;99743.72;5113976;28;20332;-66
2023/10/25 06:20:19;;;;;;;5.72;2.70;;;;;;;10.30;100.00;99745.97;5073371;28;20100;-66
2023/10/25 06:23:07;;;;;;;5.75;2.55;;;;;;;10.29;100.00;99744.31;5079418;28;20033;-66
2023/10/25 06:25:55;;;;;;;8.30;3.35;;;;;;;10.29;100.00;99742.41;5100259;28;20491;-65
2023/10/25 06:28:43;;;;;;;7.68;2.83;;;;;;;10.33;100.00;99739.91;5120729;28;20047;-65
2023/10/25 06:31:31;;;;;;;8.70;2.50;;;;;;;10.35;100.00;99738.53;5119610;27;20138;-65
2023/10/25 06:34:20;;;;;;;10.27;2.60;;;;;;;10.37;100.00;99735.50;5093413;28;20172;-65
2023/10/25 06:37:08;;;;;;;9.55;2.90;;;;;;;10.40;100.00;99734.91;5096734;28;20101;-65
2023/10/25 06:39:56;;;;;;;6.00;2.72;;;;;;;10.40;100.00;99715.84;5102541;28;20058;-65
2023/10/25 06:42:45;;;;;;;7.05;2.40;;;;;;;10.40;100.00;99718.59;5114775;28;20130;-65
2023/10/25 06:45:33;;;;;;;9.48;2.60;;;;;;;10.40;100.00;99715.84;5100710;28;20047;-65
2023/10/25 06:48:22;;;;;;;5.55;2.78;;;;;;;10.39;100.00;99711.50;5093363;28;20055;-65
2023/10/25 06:51:10;;;;;;;5.95;2.80;;;;;;;10.37;100.00;99708.28;5101381;28;20047;-66
2023/10/25 06:53:58;;;;;;;5.97;2.25;;;;;;;10.36;100.00;99703.94;5100440;28;20567;-65
2023/10/25 06:56:47;;;;;;;7.00;2.88;;;;;;;10.35;100.00;99694.16;5100416;27;20070;-65
2023/10/25 06:59:35;;;;;;;8.10;2.80;;;;;;;10.35;100.00;99694.16;5103280;27;20051;-64
2023/10/25 07:02:42;;;;;;;7.90;2.55;;;;;;;10.33;100.00;99685.47;5132925;27;20039;-65
2023/10/25 07:05:30;;;;;;;7.40;2.97;;;;;;;10.33;100.00;99680.03;5105591;28;20450;-66
2023/10/25 07:08:21;;;;;;;13.07;3.20;;;;;;;10.34;100.00;99679.75;5116558;27;20047;-67
2023/10/25 07:11:09;;;;;;;9.82;3.00;;;;;;;10.35;100.00;99675.09;5082850;28;20589;-66
2023/10/25 07:13:57;;;;;;;7.30;2.50;;;;;;;10.33;100.00;99666.41;5099705;28;20048;-66
2023/10/25 07:16:45;;;;;;;9.95;3.33;;;;;;;10.31;100.00;99660.44;5107707;28;20057;-66
2023/10/25 07:19:33;;;;;;;10.07;3.22;;;;;;;10.32;100.00;99662.88;5103251;28;20515;-66
2023/10/25 07:22:21;;;;;;;11.13;3.00;;;;;;;10.35;100.00;99656.03;5112991;28;20545;-66
2023/10/25 07:25:10;;;;;;;10.35;2.83;;;;;;;10.37;100.00;99653.81;5100170;28;20139;-66
2023/10/25 07:27:58;;;;;;;12.15;3.50;;;;;;;10.38;100.00;99660.88;5114271;28;20054;-67
2023/10/25 07:30:46;;;;;;;7.18;2.70;;;;;;;10.39;100.00;99640.69;5113922;28;20054;-66
2023/10/25 07:33:34;;;;;;;7.85;2.83;;;;;;;10.40;100.00;99642.34;5110663;27;20055;-67
2023/10/25 07:36:23;;;;;;;7.53;2.55;;;;;;;10.39;100.00;99637.97;5086332;28;20054;-67
2023/10/25 07:39:15;;;;;;;7.65;2.38;;;;;;;10.38;100.00;99639.09;5101215;28;20052;-64
2023/10/25 07:42:03;;;;;;;7.40;2.45;;;;;;;10.39;100.00;99635.25;5121669;27;20483;-64
2023/10/25 07:44:51;;;;;;;8.68;2.88;;;;;;;10.40;100.00;99629.53;5084159;28;20530;-64
2023/10/25 07:47:40;;;;;;;6.53;2.40;;;;;;;10.42;100.00;99615.63;5091656;28;20525;-63
2023/10/25 07:50:28;;;;;;;8.77;2.85;;;;;;;10.44;100.00;99618.88;5116897;27;20047;-63
2023/10/25 07:53:16;;;;;;;6.68;2.60;;;;;;;10.44;100.00;99621.59;5128179;27;20486;-63
2023/10/25 07:56:05;;;;;;;7.50;2.45;;;;;;;10.42;100.00;99618.34;5113161;28;20048;-63
2023/10/25 07:58:57;;;;;;;6.47;2.17;;;;;;;10.42;100.00;99616.44;5114335;28;20128;-64
2023/10/25 08:01:46;;;;;;;9.10;2.65;;;;;;;10.44;100.00;99611.50;5101895;27;20066;-64
2023/10/25 08:04:34;;;;;;;5.43;2.35;;;;;;;10.44;100.00;99606.06;5105786;28;20048;-62
2023/10/25 08:07:23;;;;;;;6.95;2.75;;;;;;;10.45;100.00;99602.22;5101526;28;20046;-64
2023/10/25 08:10:11;;;;;;;6.15;2.25;;;;;;;10.46;100.00;99597.56;5117506;28;20054;-65
2023/10/25 08:12:59;;;;;;;10.68;2.78;;;;;;;10.45;100.00;99595.97;5102975;28;20051;-65
2023/10/25 08:15:56;;;;;;;13.15;3.28;;;;;;;10.44;100.00;99592.44;5124732;28;20369;-65
2023/10/25 08:18:45;;;;;;;7.53;2.50;;;;;;;10.43;100.00;99587.28;5099901;28;20081;-64
2023/10/25 08:21:33;;;;;;;6.45;2.50;;;;;;;10.43;100.00;99579.09;5113175;28;20047;-65
2023/10/25 08:24:21;;;;;;;6.57;2.65;;;;;;;10.42;100.00;99569.34;5094497;28;20052;-62
2023/10/25 08:27:09;;;;;;;7.38;2.60;;;;;;;10.43;100.00;99565.50;5079533;28;20040;-63
2023/10/25 08:29:57;;;;;;;7.28;2.72;;;;;;;10.45;100.00;99564.09;5092117;28;20052;-65
2023/10/25 08:32:47;;;;;;;8.02;3.03;;;;;;;10.42;100.00;99563.88;5099063;27;20557;-64
2023/10/25 08:35:35;;;;;;;7.38;3.00;;;;;;;10.42;100.00;99561.16;5091103;28;20048;-65
2023/10/25 08:38:24;;;;;;;8.05;2.67;;;;;;;10.38;100.00;99557.41;5112863;28;20058;-63
2023/10/25 08:41:12;;;;;;;7.75;2.80;;;;;;;10.40;100.00;99552.47;5112898;28;20074;-64
2023/10/25 08:44:00;;;;;;;6.47;2.90;;;;;;;10.38;100.00;99547.31;5108285;27;20118;-65
2023/10/25 08:46:49;;;;;;;6.20;2.85;;;;;;;10.39;100.00;99545.41;5084260;28;20048;-64
2023/10/25 08:49:38;;;;;;;5.95;3.35;;;;;;;10.41;100.00;99551.38;5083373;28;20531;-64
2023/10/25 08:52:26;;;;;;;8.60;3.38;;;;;;;10.39;100.00;99538.06;5078452;28;20047;-63
2023/10/25 08:55:14;;;;;;;8.15;3.40;;;;;;;10.37;100.00;99542.19;5077850;28;20090;-64
2023/10/25 08:58:02;;;;;;;10.18;3.65;;;;;;;10.35;100.00;99537.03;5075192;28;20165;-64
2023/10/25 09:00:52;;;;;;;6.80;3.38;;;;;;;10.35;100.00;99531.59;5063363;28;20097;-64
2023/10/25 09:03:41;;;;;;;10.45;4.03;;;;;;;10.31;100.00;99521.59;5076030;28;20408;-64
2023/10/25 09:06:31;;;;;;;9.68;2.97;;;;;;;10.34;100.00;99521.00;5077071;28;20726;-64
2023/10/25 09:09:19;;;;;;;8.43;3.38;;;;;;;10.36;100.00;99516.06;5077332;28;20099;-64
2023/10/25 09:12:19;;;;;;;8.70;3.75;;;;;;;10.42;100.00;99512.16;5091889;28;20130;-65
2023/10/25 09:15:11;;;;;;;7.82;3.60;;;;;;;10.48;100.00;99518.31;5070873;28;20041;-64
2023/10/25 09:18:02;;;;;;;6.85;3.50;;;;;;;10.47;100.00;99512.06;5089090;28;20101;-65
2023/10/25 09:20:50;;;;;;;9.68;4.18;;;;;;;10.50;100.00;99516.09;5076995;28;20113;-65
2023/10/25 09:24:08;;;;;;;10.38;4.10;;;;;;;10.57;100.00;99503.69;5091979;28;20523;-63
2023/10/25 09:26:58;;;;;;;8.05;3.65;;;;;;;10.61;100.00;99499.28;5065631;28;20044;-63
2023/10/25 09:29:46;;;;;;;10.35;3.95;;;;;;;10.51;100.00;99485.84;5053210;28;20064;-63
2023/10/25 09:32:36;;;;;;;10.50;4.55;;;;;;;10.47;100.00;99490.28;5091666;28;20059;-64
2023/10/25 09:35:24;;;;;;;9.05;4.00;;;;;;;10.42;100.00;99474.03;5094565;28;20089;-62
2023/10/25 09:38:12;;;;;;;9.38;3.75;;;;;;;10.42;100.00;99477.56;5066608;28;20059;-64
2023/10/25 09:41:01;;;;;;;8.43;4.05;;;;;;;10.43;100.00;99472.91;5098157;28;20048;-62
2023/10/25 09:43:51;;;;;;;9.38;4.20;;;;;;;10.41;100.00;99469.69;5106476;28;20341;-60
2023/10/25 09:46:40;;;;;;;8.63;3.63;;;;;;;10.42;100.00;99465.88;5091427;28;20501;-61
2023/10/25 09:49:30;;;;;;;8.20;3.40;;;;;;;10.42;100.00;99465.88;5101850;28;20052;-61
2023/10/25 09:52:27;;;;;;;7.93;3.47;;;;;;;10.40;100.00;99473.53;5112038;28;20059;-58
2023/10/25 09:55:23;;;;;;;9.68;3.38;;;;;;;10.42;100.00;99460.41;5114968;28;20052;-61
2023/10/25 09:58:11;;;;;;;11.90;3.28;;;;;;;10.41;100.00;99467.78;5130920;28;20109;-63
2023/10/25 10:01:03;;;;;;;4.97;3.00;;;;;;;10.45;100.00;99476.16;5095077;28;20052;-59
2023/10/25 10:04:33;;;;;;;8.82;3.10;;;;;;;10.52;100.00;99465.66;5110520;28;20515;-64
2023/10/25 10:07:39;;;;;;;6.93;3.38;;;;;;;10.56;100.00;99458.53;5102220;28;20044;-66
2023/10/25 10:10:28;;;;;;;8.82;3.90;;;;;;;10.56;100.00;99453.06;5108470;28;20046;-63
2023/10/25 10:13:18;;;;;;;5.28;3.38;;;;;;;10.53;100.00;99442.75;5099016;28;20043;-63
2023/10/25 10:16:11;;;;;;;10.50;3.75;;;;;;;10.47;100.00;99433.09;5101178;28;20137;-64
2023/10/25 10:19:00;;;;;;;10.10;3.22;;;;;;;10.44;100.00;99431.78;5104510;28;20461;-63
2023/10/25 10:22:07;;;;;;;8.88;3.20;;;;;;;10.38;100.00;99422.06;5099780;28;20046;-63
2023/10/25 10:25:04;;;;;;;11.38;4.00;;;;;;;10.35;100.00;99411.00;5096668;28;20044;-62
2023/10/25 10:28:01;;;;;;;7.00;3.58;;;;;;;10.39;100.00;99412.00;5093757;28;20052;-63
2023/10/25 10:30:51;;;;;;;9.80;3.90;;;;;;;10.40;100.00;99421.78;5114705;28;20043;-62
2023/10/25 10:33:47;;;;;;;13.50;3.72;;;;;;;10.42;100.00;99405.97;5085746;28;20051;-63
2023/10/25 10:36:35;;;;;;;9.48;3.97;;;;;;;10.43;100.00;99402.91;5114593;28;20051;-64
2023/10/25 10:39:26;;;;;;;10.63;3.80;;;;;;;10.43;100.00;99396.66;5088136;28;20085;-65
2023/10/25 10:42:19;;;;;;;8.85;3.70;;;;;;;10.38;100.00;99388.59;5080489;28;20105;-62
2023/10/25 10:45:13;;;;;;;8.65;3.85;;;;;;;10.37;100.00;99387.00;5100102;28;20050;-62
2023/10/25 10:48:19;;;;;;;12.23;3.78;;;;;;;10.38;100.00;99372.28;5107063;28;20066;-62
2023/10/25 10:51:08;;;;;;;6.53;3.42;;;;;;;10.39;100.00;99373.88;5071488;28;20051;-62
2023/10/25 10:53:57;;;;;;;7.95;3.70;;;;;;;10.39;100.00;99361.09;5079376;28;20082;-63
2023/10/25 10:56:45;;;;;;;8.98;3.58;;;;;;;10.37;100.00;99343.44;5093701;28;20051;-63
2023/10/25 10:59:33;;;;;;;8.20;3.60;;;;;;;10.36;100.00;99347.25;5081647;28;20051;-64
2023/10/25 11:02:21;;;;;;;11.93;3.53;;;;;;;10.37;100.00;99327.09;5090485;28;20056;-65
2023/10/25 11:05:09;;;;;;;7.80;3.47;;;;;;;10.38;100.00;99323.25;5092666;28;20054;-65
2023/10/25 11:07:57;;;;;;;6.60;3.35;;;;;;;10.32;100.00;99319.00;5077247;28;20082;-64
2023/10/25 11:10:45;;;;;;;9.32;3.50;;;;;;;10.29;100.00;99314.19;5074334;28;20045;-63
2023/10/25 11:13:33;;;;;;;9.35;3.40;;;;;;;10.27;100.00;99300.03;5103934;28;20130;-65
2023/10/25 11:16:21;;;;;;;9.25;3.67;;;;;;;10.24;100.00;99296.81;5069902;28;20127;-66
2023/10/25 11:19:09;;;;;;;10.00;3.45;;;;;;;10.23;100.00;99294.41;5079750;28;20044;-65
2023/10/25 11:21:58;;;;;;;7.90;3.10;;;;;;;10.28;100.00;99285.34;5086948;28;20123;-65
2023/10/25 11:24:51;;;;;;;8.95;3.38;;;;;;;10.31;100.00;99290.19;5106741;28;20055;-65
2023/10/25 11:27:41;;;;;;;13.00;3.22;;;;;;;10.29;100.00;99278.78;5046005;28;20059;-64
2023/10/25 11:30:32;;;;;;;8.50;3.17;;;;;;;10.31;100.00;99279.31;5059516;28;20118;-64
2023/10/25 11:33:20;;;;;;;8.45;3.33;;;;;;;10.35;100.00;99272.16;5060339;28;20105;-64
2023/10/25 11:36:11;;;;;;;6.10;2.70;;;;;;;10.37;100.00;99264.50;5092335;28;20040;-63
2023/10/25 11:39:06;;;;;;;9.73;2.70;;;;;;;10.38;100.00;99263.38;5093123;28;20040;-65
2023/10/25 11:41:55;;;;;;;5.50;2.63;;;;;;;10.42;100.00;99253.47;5097600;28;20043;-65
2023/10/25 11:44:43;;;;;;;6.30;3.08;;;;;;;10.42;100.00;99248.03;5098835;28;20076;-63
2023/10/25 11:47:32;;;;;;;7.80;2.80;;;;;;;10.40;100.00;99244.81;5098974;28;20470;-65
2023/10/25 11:50:20;;;;;;;6.25;2.70;;;;;;;10.39;100.00;99244.00;5096712;28;20076;-66
2023/10/25 11:53:11;;;;;;;5.72;2.53;;;;;;;10.41;100.00;99230.06;5098589;28;20181;-66
2023/10/25 11:55:59;;;;;;;5.80;2.95;;;;;;;10.37;100.00;99229.09;5078908;28;20071;-65
2023/10/25 11:58:47;;;;;;;6.85;2.50;;;;;;;10.38;100.00;99222.53;5082617;28;20522;-64
2023/10/25 12:01:35;;;;;;;6.47;2.88;;;;;;;10.39;100.00;99215.97;5114291;28;20134;-65
2023/10/25 12:04:23;;;;;;;8.88;3.00;;;;;;;10.42;100.00;99212.66;5083309;28;20044;-65
2023/10/25 12:07:11;;;;;;;5.18;2.42;;;;;;;10.45;100.00;99204.66;5112271;28;20134;-65
2023/10/25 12:10:00;;;;;;;5.90;2.38;;;;;;;10.43;100.00;99209.59;5099294;28;20495;-64
2023/10/25 12:12:48;;;;;;;6.45;2.60;;;;;;;10.47;100.00;99207.06;5112000;28;20043;-65
2023/10/25 12:15:36;;;;;;;6.38;2.45;;;;;;;10.44;100.00;99191.38;5076758;28;20083;-64
2023/10/25 12:18:24;;;;;;;6.18;2.80;;;;;;;10.42;100.00;99193.59;5108562;28;20047;-64
2023/10/25 12:21:12;;;;;;;5.03;2.33;;;;;;;10.44;100.00;99186.72;5098829;28;20051;-63
2023/10/25 12:24:00;;;;;;;5.55;2.38;;;;;;;10.48;100.00;99181.44;5084873;28;20572;-63
2023/10/25 12:26:48;;;;;;;7.68;2.60;;;;;;;10.50;100.00;99181.94;5112615;28;20054;-64
2023/10/25 12:29:36;;;;;;;8.15;2.80;;;;;;;10.51;100.00;99177.31;5083871;28;20052;-64
2023/10/25 12:32:24;;;;;;;6.95;2.95;;;;;;;10.51;100.00;99169.13;5097928;28;20047;-64
2023/10/25 12:35:12;;;;;;;7.53;2.78;;;;;;;10.48;100.00;99161.59;5076027;28;20043;-64
2023/10/25 12:38:00;;;;;;;7.50;2.83;;;;;;;10.51;100.00;99159.06;5092520;28;20393;-65
2023/10/25 12:40:48;;;;;;;6.47;2.78;;;;;;;10.54;100.00;99163.09;5093155;28;20088;-63
2023/10/25 12:43:37;;;;;;;5.50;2.50;;;;;;;10.55;100.00;99159.25;5112660;28;20044;-64
2023/10/25 12:46:25;;;;;;;5.68;2.50;;;;;;;10.56;100.00;99148.06;5093351;28;20160;-63
2023/10/25 12:49:15;;;;;;;10.40;2.70;;;;;;;10.58;100.00;99148.56;5090555;28;20055;-64
2023/10/25 12:52:05;;;;;;;6.43;2.65;;;;;;;10.57;100.00;99146.94;5079544;28;20467;-64
2023/10/25 12:54:53;;;;;;;4.30;2.45;;;;;;;10.60;100.00;99131.88;5100436;28;20499;-64
2023/10/25 12:57:42;;;;;;;6.88;2.88;;;;;;;10.61;100.00;99134.31;5089561;28;20050;-65
2023/10/25 13:00:30;;;;;;;7.35;3.35;;;;;;;10.61;100.00;99128.06;5114236;28;20050;-64
2023/10/25 13:03:18;;;;;;;6.30;2.70;;;;;;;10.60;100.00;99121.78;5112839;28;20059;-64